Time;durP1;ratioP1;P1;durP2;ratioP2;P2;SDS_P1;SDS_P2;PMS_P1;PMS_P2;Temp;Humidity;BMP_temperature;BMP_pressure;BME280_temperature;BME280_humidity;BME280_pressure;Samples;Min_cycle;Max_cycle;Signal;HPM_P1;HPM_P2
2021/04/26 00:02:24;;;;;;;3.03;2.53;;;20.00;25.40;;;;;;5061117;28;20483;-62
2021/04/26 00:04:49;;;;;;;3.83;2.30;;;20.00;25.40;;;;;;5066429;28;20044;-61
2021/04/26 00:07:15;;;;;;;4.80;2.90;;;20.00;25.80;;;;;;5063840;28;20044;-61
2021/04/26 00:09:41;;;;;;;4.05;2.90;;;20.00;25.80;;;;;;5052749;28;20032;-61
2021/04/26 00:12:08;;;;;;;2.88;2.65;;;19.90;26.00;;;;;;5038083;28;20487;-61
2021/04/26 00:14:33;;;;;;;5.28;2.90;;;19.90;26.10;;;;;;5054363;28;20055;-61
2021/04/26 00:16:59;;;;;;;3.60;2.67;;;19.90;26.00;;;;;;5064256;28;20033;-61
2021/04/26 00:19:25;;;;;;;3.00;2.53;;;19.90;26.20;;;;;;5060867;28;20038;-61
2021/04/26 00:21:50;;;;;;;4.32;2.85;;;19.90;26.10;;;;;;5042658;28;20045;-62
2021/04/26 00:24:16;;;;;;;5.25;3.15;;;19.80;26.10;;;;;;5049034;28;20171;-62
2021/04/26 00:26:42;;;;;;;2.88;2.55;;;19.80;26.30;;;;;;5054294;28;20053;-61
2021/04/26 00:29:08;;;;;;;2.90;2.30;;;19.80;26.10;;;;;;5038903;28;20079;-61
2021/04/26 00:31:33;;;;;;;3.60;2.75;;;19.80;26.30;;;;;;5057588;28;20047;-61
2021/04/26 00:33:59;;;;;;;3.00;2.40;;;19.80;26.30;;;;;;5049686;28;20043;-62
2021/04/26 00:36:25;;;;;;;4.03;2.38;;;19.80;26.50;;;;;;5059017;28;20127;-62
2021/04/26 00:38:50;;;;;;;3.28;2.55;;;19.80;26.50;;;;;;5041334;28;20065;-62
2021/04/26 00:41:16;;;;;;;3.13;2.40;;;19.80;26.20;;;;;;5051222;28;20045;-62
2021/04/26 00:43:42;;;;;;;5.20;2.55;;;19.80;26.00;;;;;;5047950;28;20041;-62
2021/04/26 00:46:07;;;;;;;3.13;2.83;;;19.80;26.40;;;;;;5055279;28;20044;-62
2021/04/26 00:48:33;;;;;;;4.47;2.63;;;19.70;26.00;;;;;;5048510;28;20446;-62
2021/04/26 00:50:59;;;;;;;4.00;2.78;;;19.70;26.50;;;;;;5025832;28;20041;-61
2021/04/26 00:53:25;;;;;;;3.03;2.53;;;19.60;26.60;;;;;;5043581;28;20036;-62
2021/04/26 00:55:50;;;;;;;3.40;2.88;;;19.70;26.60;;;;;;5049687;28;20052;-62
2021/04/26 00:58:16;;;;;;;5.75;2.63;;;19.70;26.50;;;;;;5065632;28;20047;-62
2021/04/26 01:00:42;;;;;;;2.80;2.60;;;19.70;26.50;;;;;;5055540;28;20064;-62
2021/04/26 01:03:08;;;;;;;3.00;2.58;;;19.70;26.50;;;;;;5066916;28;20410;-61
2021/04/26 01:05:35;;;;;;;2.75;2.33;;;19.70;26.40;;;;;;5048261;28;20041;-62
2021/04/26 01:08:01;;;;;;;2.42;2.22;;;19.60;26.40;;;;;;5064258;28;20048;-61
2021/04/26 01:10:30;;;;;;;2.90;2.70;;;19.50;27.00;;;;;;5061480;28;20469;-61
2021/04/26 01:13:32;;;;;;;3.28;2.50;;;19.50;26.60;;;;;;5053615;28;20055;-61
2021/04/26 01:16:02;;;;;;;3.92;2.30;;;19.50;27.10;;;;;;5046206;28;20072;-61
2021/04/26 01:18:36;;;;;;;2.83;2.58;;;19.50;26.30;;;;;;5033034;28;20537;-61
2021/04/26 01:21:36;;;;;;;3.00;2.45;;;19.50;26.80;;;;;;5050763;28;20037;-61
2021/04/26 01:24:39;;;;;;;2.30;2.20;;;19.50;26.50;;;;;;5017531;28;20045;-62
2021/04/26 01:27:23;;;;;;;4.05;2.72;;;19.50;26.20;;;;;;4998406;28;20428;-62
2021/04/26 01:30:03;;;;;;;3.65;2.53;;;19.50;26.10;;;;;;5055349;28;20059;-62
2021/04/26 01:32:55;;;;;;;4.40;3.00;;;19.50;26.20;;;;;;5053073;28;20040;-61
2021/04/26 01:35:22;;;;;;;3.28;2.97;;;19.50;27.00;;;;;;5040603;28;20072;-62
2021/04/26 01:37:52;;;;;;;4.70;3.50;;;19.40;26.70;;;;;;5036787;28;20052;-62
2021/04/26 01:40:19;;;;;;;5.15;3.33;;;19.40;26.90;;;;;;5052357;28;20117;-62
2021/04/26 01:42:50;;;;;;;3.90;3.25;;;19.40;27.10;;;;;;5052760;28;20044;-62
2021/04/26 01:45:17;;;;;;;3.05;2.85;;;19.40;27.40;;;;;;5055560;28;20537;-61
2021/04/26 01:47:46;;;;;;;3.65;3.28;;;19.40;27.40;;;;;;5044198;28;20041;-61
2021/04/26 01:50:14;;;;;;;3.50;3.03;;;19.40;27.50;;;;;;5045098;28;20059;-61
2021/04/26 01:52:40;;;;;;;5.13;3.50;;;19.30;27.50;;;;;;5034712;28;20514;-61
2021/04/26 01:55:12;;;;;;;4.80;2.92;;;19.40;27.50;;;;;;5049145;28;20525;-61
2021/04/26 01:57:40;;;;;;;4.43;3.20;;;19.30;27.90;;;;;;5030082;28;20052;-61
2021/04/26 02:00:16;;;;;;;10.70;6.25;;;19.30;27.60;;;;;;5042641;28;20044;-61
2021/04/26 02:02:43;;;;;;;10.48;6.43;;;19.20;28.60;;;;;;5035021;28;20041;-61
2021/04/26 02:05:10;;;;;;;12.18;8.95;;;19.20;29.00;;;;;;5044363;28;20045;-61
2021/04/26 02:07:37;;;;;;;11.55;9.80;;;19.20;29.60;;;;;;5041365;28;20499;-61
2021/04/26 02:10:05;;;;;;;15.07;10.25;;;19.10;30.30;;;;;;5044532;28;20044;-61
2021/04/26 02:12:32;;;;;;;14.90;9.98;;;19.10;31.10;;;;;;5046724;28;20033;-61
2021/04/26 02:14:58;;;;;;;13.38;11.45;;;19.00;31.30;;;;;;5048609;28;20182;-60
2021/04/26 02:17:25;;;;;;;13.88;10.80;;;19.10;31.70;;;;;;5042337;28;20067;-61
2021/04/26 02:19:51;;;;;;;15.43;12.75;;;19.00;32.10;;;;;;5047407;28;20051;-62
2021/04/26 02:22:17;;;;;;;18.48;12.45;;;19.00;32.40;;;;;;5055921;28;20045;-61
2021/04/26 02:24:42;;;;;;;18.75;12.65;;;19.00;32.80;;;;;;5025669;28;20033;-62
2021/04/26 02:27:08;;;;;;;18.17;12.50;;;18.90;33.10;;;;;;5066979;28;20032;-61
2021/04/26 02:29:34;;;;;;;15.65;12.48;;;19.00;33.30;;;;;;5063171;28;20131;-61
2021/04/26 02:32:08;;;;;;;22.67;14.13;;;19.00;33.60;;;;;;5047134;28;20036;-61
2021/04/26 02:34:44;;;;;;;20.67;14.50;;;18.80;33.90;;;;;;5052193;28;20535;-61
2021/04/26 02:37:28;;;;;;;19.58;13.90;;;18.80;34.50;;;;;;5028826;28;22244;-62
2021/04/26 02:39:58;;;;;;;16.80;12.83;;;18.80;35.20;;;;;;5048439;28;20075;-62
2021/04/26 02:42:25;;;;;;;18.73;13.70;;;18.80;34.30;;;;;;5063073;28;20505;-62
2021/04/26 02:44:52;;;;;;;18.45;13.98;;;18.80;34.00;;;;;;5064280;28;20055;-62
2021/04/26 02:47:20;;;;;;;20.98;13.90;;;18.90;34.10;;;;;;5066526;28;20052;-62
2021/04/26 02:49:47;;;;;;;19.75;13.27;;;18.80;34.10;;;;;;5063914;28;20563;-62
2021/04/26 02:52:14;;;;;;;19.58;13.82;;;18.80;34.10;;;;;;5064364;28;20040;-62
2021/04/26 02:54:42;;;;;;;19.85;13.32;;;18.80;34.10;;;;;;5046263;28;20119;-62
2021/04/26 02:57:09;;;;;;;16.42;12.90;;;18.90;34.30;;;;;;5052116;28;20618;-61
2021/04/26 02:59:37;;;;;;;16.58;12.60;;;18.80;34.20;;;;;;5048485;28;20124;-62
2021/04/26 03:02:03;;;;;;;18.70;14.65;;;18.80;34.60;;;;;;5054601;28;20083;-61
2021/04/26 03:04:29;;;;;;;20.80;13.48;;;18.70;34.40;;;;;;5047276;28;20040;-61
2021/04/26 03:06:57;;;;;;;18.95;13.73;;;18.70;34.40;;;;;;5049639;28;20039;-62
2021/04/26 03:09:24;;;;;;;19.33;14.40;;;18.70;34.50;;;;;;5052705;28;20050;-62
2021/04/26 03:11:52;;;;;;;21.27;14.18;;;18.70;34.50;;;;;;5050585;28;20064;-62
2021/04/26 03:14:19;;;;;;;19.67;14.13;;;18.60;34.80;;;;;;5058799;28;20048;-62
2021/04/26 03:16:47;;;;;;;20.38;15.07;;;18.60;34.70;;;;;;5043923;28;20029;-62
2021/04/26 03:19:16;;;;;;;24.58;14.73;;;18.70;34.60;;;;;;5058970;28;20443;-62
2021/04/26 03:21:43;;;;;;;20.23;14.85;;;18.70;34.80;;;;;;5046250;28;20157;-62
2021/04/26 03:24:09;;;;;;;20.92;13.77;;;18.60;34.70;;;;;;5045882;28;20037;-61
2021/04/26 03:26:37;;;;;;;22.30;14.23;;;18.60;34.70;;;;;;5044288;28;20048;-61
2021/04/26 03:29:04;;;;;;;20.73;14.57;;;18.70;34.60;;;;;;5045679;28;20037;-62
2021/04/26 03:31:30;;;;;;;21.42;14.63;;;18.60;34.50;;;;;;5042477;28;20033;-61
2021/04/26 03:33:57;;;;;;;22.63;14.48;;;18.60;34.50;;;;;;5044335;28;20053;-62
2021/04/26 03:36:24;;;;;;;22.90;14.38;;;18.60;34.10;;;;;;5050103;28;20094;-62
2021/04/26 03:38:50;;;;;;;20.08;13.60;;;18.60;34.60;;;;;;5055517;28;20040;-62
2021/04/26 03:41:16;;;;;;;23.15;14.15;;;18.60;34.30;;;;;;5047499;28;20048;-61
2021/04/26 03:43:44;;;;;;;25.42;14.13;;;18.70;34.10;;;;;;5054129;28;20040;-62
2021/04/26 03:46:10;;;;;;;18.70;13.52;;;18.70;34.50;;;;;;5041866;28;20045;-62
2021/04/26 03:48:37;;;;;;;18.98;13.68;;;18.70;34.50;;;;;;5046546;28;20087;-62
2021/04/26 03:51:02;;;;;;;21.48;13.68;;;18.60;34.60;;;;;;5058231;28;20036;-62
2021/04/26 03:53:28;;;;;;;21.13;13.98;;;18.70;33.90;;;;;;5059577;28;20050;-60
2021/04/26 03:55:54;;;;;;;19.05;13.88;;;18.60;34.00;;;;;;5053312;28;20045;-61
2021/04/26 03:58:19;;;;;;;22.80;13.13;;;18.60;33.80;;;;;;5047417;28;20048;-61
2021/04/26 04:00:45;;;;;;;20.02;14.18;;;18.60;33.80;;;;;;5057722;28;20032;-61
2021/04/26 04:03:13;;;;;;;22.27;14.02;;;18.60;33.60;;;;;;5046695;28;20051;-62
2021/04/26 04:05:39;;;;;;;22.40;15.25;;;18.60;33.70;;;;;;5052284;28;20139;-61
2021/04/26 04:08:08;;;;;;;21.98;14.20;;;18.50;33.50;;;;;;5047103;28;20127;-61
2021/04/26 04:10:34;;;;;;;25.10;15.05;;;18.40;33.60;;;;;;5055466;28;20055;-61
2021/04/26 04:13:00;;;;;;;24.98;14.75;;;18.40;33.80;;;;;;5046372;28;20067;-61
2021/04/26 04:15:26;;;;;;;21.85;14.77;;;18.50;33.50;;;;;;5053693;28;20036;-61
2021/04/26 04:17:52;;;;;;;24.45;14.20;;;18.50;33.30;;;;;;5056430;28;20106;-61
2021/04/26 04:20:18;;;;;;;22.45;14.13;;;18.50;33.50;;;;;;5066790;28;20071;-61
2021/04/26 04:22:43;;;;;;;22.23;13.13;;;18.50;33.30;;;;;;5041628;28;20032;-61
2021/04/26 04:25:11;;;;;;;21.15;13.02;;;18.50;33.30;;;;;;5054045;28;20044;-61
2021/04/26 04:27:37;;;;;;;21.65;13.20;;;18.60;33.30;;;;;;5062125;28;20078;-61
2021/04/26 04:30:06;;;;;;;24.02;15.27;;;18.60;33.50;;;;;;5055550;28;20498;-61
2021/04/26 04:32:32;;;;;;;22.63;13.23;;;18.50;33.40;;;;;;5050384;28;20056;-61
2021/04/26 04:34:57;;;;;;;22.55;13.10;;;18.60;33.40;;;;;;5031493;28;20416;-61
2021/04/26 04:37:23;;;;;;;18.25;12.60;;;18.60;33.30;;;;;;5039780;28;20043;-61
2021/04/26 04:39:49;;;;;;;20.60;13.40;;;18.60;33.40;;;;;;5050375;28;20495;-61
2021/04/26 04:42:14;;;;;;;22.15;13.55;;;18.60;33.40;;;;;;5065191;28;20036;-60
2021/04/26 04:44:41;;;;;;;22.02;14.10;;;18.60;33.50;;;;;;5060276;28;20475;-60
2021/04/26 04:47:06;;;;;;;24.17;13.95;;;18.60;33.50;;;;;;5049118;28;20045;-60
2021/04/26 04:49:32;;;;;;;20.73;13.70;;;18.60;33.40;;;;;;5053364;28;20043;-61
2021/04/26 04:51:58;;;;;;;23.42;14.50;;;18.50;32.90;;;;;;5065522;28;20044;-60
2021/04/26 04:54:23;;;;;;;20.35;14.13;;;18.50;33.00;;;;;;5060232;28;20128;-60
2021/04/26 04:56:52;;;;;;;20.20;12.52;;;18.50;32.80;;;;;;5042963;28;20076;-61
2021/04/26 04:59:19;;;;;;;20.42;13.20;;;18.50;32.60;;;;;;5031590;28;20048;-61
2021/04/26 05:01:46;;;;;;;21.50;12.90;;;18.30;32.60;;;;;;5034463;28;20235;-61
2021/04/26 05:04:12;;;;;;;18.05;12.90;;;18.30;32.80;;;;;;5028176;28;20717;-61
2021/04/26 05:06:37;;;;;;;19.80;12.75;;;18.40;32.90;;;;;;5046296;28;20041;-60
2021/04/26 05:09:05;;;;;;;21.02;12.75;;;18.40;33.00;;;;;;5034747;28;20120;-62
2021/04/26 05:11:31;;;;;;;17.60;12.20;;;18.30;33.00;;;;;;5036272;28;20498;-61
2021/04/26 05:13:57;;;;;;;18.58;12.57;;;18.20;32.90;;;;;;5039026;28;20065;-61
2021/04/26 05:16:29;;;;;;;21.23;13.48;;;18.20;33.00;;;;;;5041878;28;20040;-60
2021/04/26 05:18:58;;;;;;;19.30;12.77;;;18.20;32.90;;;;;;5030768;28;20048;-62
2021/04/26 05:21:24;;;;;;;17.27;11.95;;;18.20;33.10;;;;;;5029419;28;20053;-62
2021/04/26 05:23:50;;;;;;;22.10;13.38;;;18.20;33.40;;;;;;5036851;28;20793;-60
2021/04/26 05:26:15;;;;;;;19.92;12.30;;;18.20;33.50;;;;;;5029361;28;20475;-60
2021/04/26 05:28:41;;;;;;;22.25;13.75;;;18.10;33.70;;;;;;5030949;28;20493;-61
2021/04/26 05:31:07;;;;;;;18.60;12.95;;;18.00;34.00;;;;;;5032653;28;20045;-61
2021/04/26 05:33:32;;;;;;;18.83;12.45;;;18.10;34.00;;;;;;5028714;28;20522;-61
2021/04/26 05:35:58;;;;;;;22.88;13.32;;;18.10;34.30;;;;;;5034195;28;20057;-61
2021/04/26 05:38:24;;;;;;;19.60;12.60;;;18.10;34.60;;;;;;5032935;28;20037;-62
2021/04/26 05:40:50;;;;;;;18.40;12.95;;;18.10;34.60;;;;;;5030446;28;20390;-62
2021/04/26 05:43:16;;;;;;;17.65;11.55;;;18.10;34.60;;;;;;5041810;28;20033;-62
2021/04/26 05:45:42;;;;;;;18.52;12.02;;;18.20;34.60;;;;;;5034041;28;20041;-61
2021/04/26 05:48:09;;;;;;;19.35;12.82;;;18.00;35.00;;;;;;5039948;28;20045;-61
2021/04/26 05:50:36;;;;;;;16.85;11.70;;;18.00;35.40;;;;;;5031191;28;20115;-61
2021/04/26 05:53:02;;;;;;;15.07;10.90;;;17.80;35.30;;;;;;5040883;28;20056;-61
2021/04/26 05:55:28;;;;;;;19.17;11.63;;;18.00;35.60;;;;;;5036955;28;20041;-62
2021/04/26 05:57:54;;;;;;;16.50;11.85;;;17.90;35.80;;;;;;5048589;28;20475;-62
2021/04/26 06:00:20;;;;;;;19.60;11.18;;;18.00;35.90;;;;;;5055814;28;20040;-62
2021/04/26 06:02:46;;;;;;;21.35;12.07;;;17.90;35.70;;;;;;5041114;28;20045;-61
2021/04/26 06:05:12;;;;;;;18.42;11.93;;;17.90;35.40;;;;;;5059118;28;20056;-62
2021/04/26 06:07:38;;;;;;;17.52;11.00;;;17.90;35.00;;;;;;5052067;28;20366;-62
2021/04/26 06:10:04;;;;;;;14.25;10.23;;;17.90;35.00;;;;;;5068127;28;20033;-61
2021/04/26 06:12:31;;;;;;;14.63;11.00;;;17.80;34.40;;;;;;5039535;28;20045;-61
2021/04/26 06:14:57;;;;;;;13.63;10.60;;;17.70;34.50;;;;;;5063842;28;20040;-62
2021/04/26 06:17:23;;;;;;;14.50;11.30;;;17.90;34.60;;;;;;5060438;28;21080;-62
2021/04/26 06:19:48;;;;;;;14.52;10.27;;;18.00;34.70;;;;;;5065038;28;20048;-62
2021/04/26 06:22:14;;;;;;;15.25;10.77;;;17.90;34.30;;;;;;5062411;28;20059;-62
2021/04/26 06:24:40;;;;;;;19.02;11.40;;;17.90;34.20;;;;;;5052471;28;20072;-61
2021/04/26 06:27:05;;;;;;;13.85;10.60;;;18.00;34.20;;;;;;5045693;28;20037;-62
2021/04/26 06:29:31;;;;;;;17.60;11.13;;;18.00;34.20;;;;;;5040273;28;20387;-61
2021/04/26 06:31:57;;;;;;;21.00;11.38;;;18.00;34.50;;;;;;5054690;28;20053;-61
2021/04/26 06:34:23;;;;;;;16.48;11.23;;;18.00;34.50;;;;;;5050492;28;20945;-61
2021/04/26 06:36:48;;;;;;;15.75;10.45;;;17.90;34.30;;;;;;5053845;28;20075;-62
2021/04/26 06:39:14;;;;;;;14.65;9.63;;;17.90;34.40;;;;;;5050261;28;20115;-61
2021/04/26 06:41:40;;;;;;;17.98;10.88;;;17.80;34.60;;;;;;5053748;28;20065;-62
2021/04/26 06:44:06;;;;;;;16.65;10.60;;;17.80;34.50;;;;;;5043861;28;20051;-61
2021/04/26 06:46:32;;;;;;;15.82;10.68;;;17.80;34.70;;;;;;5042727;28;20029;-62
2021/04/26 06:48:58;;;;;;;15.70;10.70;;;17.70;34.60;;;;;;5039129;28;20044;-62
2021/04/26 06:51:24;;;;;;;17.20;11.32;;;17.80;34.80;;;;;;5062243;28;20076;-62
2021/04/26 06:53:49;;;;;;;14.98;10.85;;;17.90;34.70;;;;;;5022513;28;20139;-62
2021/04/26 06:56:15;;;;;;;19.67;11.57;;;17.80;35.10;;;;;;5046462;28;20102;-62
2021/04/26 06:58:41;;;;;;;16.02;11.32;;;17.90;35.10;;;;;;5049517;28;20478;-61
2021/04/26 07:01:06;;;;;;;16.75;12.02;;;18.00;34.80;;;;;;5067090;28;20056;-61
2021/04/26 07:03:32;;;;;;;13.95;11.10;;;18.00;35.00;;;;;;5053825;28;20102;-62
2021/04/26 07:05:59;;;;;;;20.17;10.73;;;18.00;35.00;;;;;;5064025;28;20505;-61
2021/04/26 07:08:25;;;;;;;14.85;11.15;;;18.00;35.40;;;;;;5050430;28;20041;-62
2021/04/26 07:10:51;;;;;;;16.00;11.75;;;18.00;35.10;;;;;;5043895;28;20086;-61
2021/04/26 07:13:17;;;;;;;15.52;10.70;;;17.80;35.10;;;;;;5057133;28;20090;-62
2021/04/26 07:15:43;;;;;;;17.85;10.80;;;17.90;35.00;;;;;;5047402;28;20033;-62
2021/04/26 07:18:09;;;;;;;18.42;10.82;;;18.00;35.10;;;;;;5051363;28;20408;-61
2021/04/26 07:20:35;;;;;;;17.52;11.02;;;18.00;35.20;;;;;;5042799;28;20495;-61
2021/04/26 07:23:01;;;;;;;17.42;11.38;;;18.00;35.30;;;;;;5058545;28;20162;-61
2021/04/26 07:25:27;;;;;;;11.88;10.57;;;18.00;35.30;;;;;;5064784;28;20347;-62
2021/04/26 07:27:52;;;;;;;15.65;11.18;;;17.80;35.50;;;;;;5052237;28;20044;-62
2021/04/26 07:30:18;;;;;;;19.23;12.00;;;17.90;35.40;;;;;;5046966;28;20076;-62
2021/04/26 07:32:45;;;;;;;17.13;10.77;;;18.00;35.50;;;;;;5060791;28;20652;-62
2021/04/26 07:35:13;;;;;;;17.70;11.93;;;17.90;35.60;;;;;;5051407;28;20312;-62
2021/04/26 07:37:40;;;;;;;17.95;11.95;;;18.10;35.80;;;;;;5032452;28;20048;-62
2021/04/26 07:40:08;;;;;;;20.83;11.48;;;18.00;35.70;;;;;;5048327;28;20147;-62
2021/04/26 07:42:34;;;;;;;15.27;11.30;;;17.80;36.00;;;;;;5048900;28;20044;-61
2021/04/26 07:45:00;;;;;;;15.75;11.32;;;17.80;36.00;;;;;;5063233;28;20040;-60
2021/04/26 07:47:26;;;;;;;15.95;11.27;;;18.00;36.10;;;;;;5060967;28;20040;-62
2021/04/26 07:49:52;;;;;;;17.38;12.00;;;18.00;36.10;;;;;;5060756;28;20458;-62
2021/04/26 07:52:17;;;;;;;15.43;11.93;;;18.10;36.10;;;;;;5032080;28;20116;-62
2021/04/26 07:54:43;;;;;;;14.20;11.05;;;18.00;36.60;;;;;;5045677;28;20064;-61
2021/04/26 07:57:09;;;;;;;18.35;12.30;;;17.90;36.50;;;;;;5036294;28;20063;-61
2021/04/26 07:59:35;;;;;;;17.00;11.43;;;18.00;36.60;;;;;;5044137;28;20442;-60
2021/04/26 08:02:00;;;;;;;17.25;11.38;;;18.10;36.60;;;;;;5041022;28;20092;-59
2021/04/26 08:04:26;;;;;;;17.63;10.88;;;18.20;36.30;;;;;;5048510;28;20036;-61
2021/04/26 08:06:52;;;;;;;14.95;12.45;;;18.10;36.70;;;;;;5052220;28;20059;-62
2021/04/26 08:09:17;;;;;;;13.90;11.18;;;18.00;37.10;;;;;;5063889;28;20996;-61
2021/04/26 08:11:43;;;;;;;14.32;12.20;;;18.00;37.30;;;;;;5048907;28;20635;-61
2021/04/26 08:14:09;;;;;;;12.75;11.38;;;18.10;37.20;;;;;;5047788;28;20049;-62
2021/04/26 08:16:35;;;;;;;16.27;12.32;;;18.20;37.10;;;;;;5055654;28;20449;-62
2021/04/26 08:19:00;;;;;;;13.90;11.85;;;18.10;37.50;;;;;;5055508;28;20046;-61
2021/04/26 08:21:26;;;;;;;18.02;14.77;;;18.10;37.90;;;;;;5051749;28;20045;-62
2021/04/26 08:23:56;;;;;;;18.60;12.68;;;18.20;37.50;;;;;;5041911;28;20037;-62
2021/04/26 08:26:22;;;;;;;15.38;11.52;;;18.10;37.50;;;;;;5052627;28;20052;-62
2021/04/26 08:28:47;;;;;;;13.90;12.18;;;18.20;37.60;;;;;;5041223;28;20034;-61
2021/04/26 08:31:13;;;;;;;14.38;12.10;;;18.20;37.60;;;;;;5042298;28;20163;-62
2021/04/26 08:33:40;;;;;;;16.48;12.40;;;18.30;37.40;;;;;;5041984;28;20048;-62
2021/04/26 08:36:06;;;;;;;17.05;12.32;;;18.20;38.30;;;;;;5051170;28;20033;-62
2021/04/26 08:38:32;;;;;;;20.23;13.40;;;18.10;37.80;;;;;;5048029;28;20036;-61
2021/04/26 08:40:58;;;;;;;17.48;13.20;;;18.10;37.80;;;;;;5061098;28;20040;-62
2021/04/26 08:43:24;;;;;;;18.42;12.00;;;18.20;37.90;;;;;;5059026;28;20036;-62
2021/04/26 08:45:50;;;;;;;16.50;12.85;;;18.20;38.20;;;;;;5054849;28;20045;-62
2021/04/26 08:48:18;;;;;;;28.27;25.33;;;18.20;38.20;;;;;;5048388;28;20486;-62
2021/04/26 08:50:44;;;;;;;26.52;15.05;;;18.20;38.50;;;;;;5040564;28;20120;-62
2021/04/26 08:53:10;;;;;;;18.60;14.82;;;18.20;38.40;;;;;;5041966;28;20076;-61
2021/04/26 08:55:36;;;;;;;18.23;13.50;;;18.10;38.90;;;;;;5044453;28;20059;-60
2021/04/26 08:58:02;;;;;;;16.98;13.30;;;18.20;38.60;;;;;;5039213;28;20047;-61
2021/04/26 09:00:28;;;;;;;16.98;14.18;;;18.30;39.20;;;;;;5042836;28;20095;-61
2021/04/26 09:02:59;;;;;;;14.70;13.13;;;18.30;38.40;;;;;;5046323;28;20044;-61
2021/04/26 09:05:29;;;;;;;17.27;13.05;;;18.50;38.40;;;;;;5028973;28;20068;-61
2021/04/26 09:07:59;;;;;;;15.95;12.95;;;18.50;38.30;;;;;;5045026;28;20037;-61
2021/04/26 09:10:50;;;;;;;17.50;12.80;;;18.60;38.90;;;;;;5050435;28;20079;-62
2021/04/26 09:13:38;;;;;;;17.98;12.85;;;18.60;39.20;;;;;;5016828;28;20032;-62
2021/04/26 09:16:09;;;;;;;19.67;13.48;;;18.70;39.00;;;;;;5045482;28;20099;-60
2021/04/26 09:18:55;;;;;;;20.05;14.18;;;18.70;38.60;;;;;;5052069;28;20070;-61
2021/04/26 09:21:28;;;;;;;19.67;14.18;;;18.80;38.90;;;;;;5045121;28;20043;-62
2021/04/26 09:24:23;;;;;;;19.08;14.43;;;18.70;38.90;;;;;;5048941;28;20053;-61
2021/04/26 09:26:51;;;;;;;19.42;13.82;;;18.70;39.50;;;;;;4992254;28;20037;-61
2021/04/26 09:29:18;;;;;;;18.20;13.32;;;18.60;38.60;;;;;;5056529;28;20075;-62
2021/04/26 09:31:59;;;;;;;19.70;13.70;;;18.80;38.80;;;;;;5043609;28;20048;-61
2021/04/26 09:34:31;;;;;;;21.13;13.95;;;18.80;39.30;;;;;;5042776;28;20059;-62
2021/04/26 09:37:21;;;;;;;19.45;13.70;;;18.90;38.60;;;;;;5045738;28;20304;-61
2021/04/26 09:40:10;;;;;;;16.73;13.77;;;19.10;38.60;;;;;;5015802;28;20127;-62
2021/04/26 09:42:51;;;;;;;21.77;13.60;;;19.20;38.70;;;;;;5045380;28;20059;-61
2021/04/26 09:45:46;;;;;;;16.98;13.73;;;19.10;38.30;;;;;;5020625;28;20044;-62
2021/04/26 09:48:14;;;;;;;17.83;12.63;;;19.20;38.00;;;;;;5021099;28;20025;-61
2021/04/26 09:51:08;;;;;;;16.90;13.60;;;19.20;38.10;;;;;;5049041;28;20517;-61
2021/04/26 09:53:40;;;;;;;19.65;14.25;;;19.40;37.80;;;;;;5047279;28;20041;-61
2021/04/26 09:56:42;;;;;;;20.77;13.60;;;19.40;37.70;;;;;;5043552;28;20491;-61
2021/04/26 09:59:09;;;;;;;18.23;13.80;;;19.60;37.20;;;;;;4998629;28;20095;-62
2021/04/26 10:01:36;;;;;;;21.40;14.82;;;19.50;37.40;;;;;;5043948;28;20685;-62
2021/04/26 10:04:04;;;;;;;22.42;14.05;;;19.60;37.40;;;;;;5045698;28;20124;-61
2021/04/26 10:06:30;;;;;;;16.83;14.02;;;19.60;37.30;;;;;;5052822;28;20563;-62
2021/04/26 10:08:59;;;;;;;22.02;17.88;;;19.60;37.40;;;;;;5047956;28;20044;-61
2021/04/26 10:11:27;;;;;;;19.25;17.13;;;19.60;37.50;;;;;;5037903;28;20039;-61
2021/04/26 10:14:09;;;;;;;20.13;15.65;;;19.50;37.40;;;;;;5033588;28;20041;-61
2021/04/26 10:16:54;;;;;;;24.08;16.40;;;19.70;37.70;;;;;;5055299;28;20455;-60
2021/04/26 10:19:30;;;;;;;25.45;22.08;;;19.60;38.20;;;;;;5064040;28;20049;-61
2021/04/26 10:21:58;;;;;;;18.30;16.27;;;19.70;37.00;;;;;;5043247;28;20517;-61
2021/04/26 10:24:25;;;;;;;22.20;17.13;;;19.70;37.20;;;;;;5049701;28;20500;-61
2021/04/26 10:26:53;;;;;;;17.48;15.35;;;19.80;37.10;;;;;;5051740;28;20135;-62
2021/04/26 10:29:26;;;;;;;19.70;13.98;;;19.80;37.60;;;;;;5062531;28;20033;-61
2021/04/26 10:32:01;;;;;;;20.67;15.57;;;19.70;37.30;;;;;;5049472;28;27117;-61
2021/04/26 10:34:30;;;;;;;22.25;14.75;;;19.60;37.40;;;;;;5058565;28;20040;-61
2021/04/26 10:37:02;;;;;;;16.10;14.10;;;19.50;37.80;;;;;;5039546;28;20088;-62
2021/04/26 10:39:29;;;;;;;18.98;14.27;;;19.60;37.80;;;;;;5054624;28;20033;-61
2021/04/26 10:41:59;;;;;;;22.20;14.00;;;19.60;37.60;;;;;;5055480;28;20059;-62
2021/04/26 10:44:40;;;;;;;21.50;15.85;;;19.70;37.60;;;;;;5049366;28;20044;-62
2021/04/26 10:47:29;;;;;;;24.95;22.63;;;19.70;38.20;;;;;;5048374;28;20068;-61
2021/04/26 10:50:01;;;;;;;18.15;15.73;;;19.80;37.70;;;;;;5056295;28;20040;-62
2021/04/26 10:52:29;;;;;;;20.25;16.73;;;19.70;38.00;;;;;;5052729;28;20500;-61
2021/04/26 10:55:11;;;;;;;19.48;15.55;;;19.70;37.70;;;;;;5066685;28;20674;-61
2021/04/26 10:57:57;;;;;;;17.50;14.65;;;19.80;37.70;;;;;;5014868;28;20449;-61
2021/04/26 11:00:22;;;;;;;20.65;15.18;;;19.80;38.70;;;;;;5012215;28;20046;-61
2021/04/26 11:02:57;;;;;;;18.30;16.38;;;19.60;38.20;;;;;;5010303;28;20053;-61
2021/04/26 11:05:24;;;;;;;97.15;27.27;;;19.50;39.00;;;;;;5024096;28;20089;-62
2021/04/26 11:08:00;;;;;;;20.15;15.90;;;19.50;39.10;;;;;;5027551;28;20037;-61
2021/04/26 11:10:29;;;;;;;157.55;38.30;;;19.60;38.90;;;;;;5007770;28;20152;-62
2021/04/26 11:13:00;;;;;;;67.32;25.13;;;19.60;39.40;;;;;;5006802;28;20057;-61
2021/04/26 11:15:26;;;;;;;68.30;25.83;;;19.60;39.00;;;;;;5012453;28;20058;-61
2021/04/26 11:17:55;;;;;;;61.40;26.25;;;19.60;39.00;;;;;;5016119;28;20046;-61
2021/04/26 11:20:26;;;;;;;28.00;17.67;;;19.70;39.30;;;;;;5016566;28;20045;-61
2021/04/26 11:22:58;;;;;;;57.00;22.55;;;19.70;39.50;;;;;;5022307;28;20979;-61
2021/04/26 11:25:39;;;;;;;24.33;16.17;;;19.70;39.50;;;;;;5018833;28;20072;-62
2021/04/26 11:28:06;;;;;;;21.65;16.63;;;19.70;39.80;;;;;;5018350;28;20030;-60
2021/04/26 11:30:34;;;;;;;30.05;17.35;;;19.80;39.40;;;;;;5012121;28;20034;-61
2021/04/26 11:33:01;;;;;;;33.88;19.25;;;19.70;39.60;;;;;;5027375;28;20041;-61
2021/04/26 11:35:28;;;;;;;33.97;18.30;;;19.80;39.80;;;;;;4998283;28;20041;-60
2021/04/26 11:37:54;;;;;;;23.17;17.52;;;19.80;40.00;;;;;;4999427;28;20100;-61
2021/04/26 11:40:21;;;;;;;28.85;17.23;;;19.60;39.80;;;;;;4998596;28;20048;-61
2021/04/26 11:42:48;;;;;;;20.70;16.85;;;19.70;40.20;;;;;;5002129;28;20038;-61
2021/04/26 11:45:15;;;;;;;24.60;18.15;;;19.70;40.40;;;;;;5004067;28;20045;-60
2021/04/26 11:47:41;;;;;;;23.05;16.83;;;19.70;40.20;;;;;;5015162;28;20038;-60
2021/04/26 11:50:10;;;;;;;21.70;16.60;;;19.90;40.30;;;;;;5001746;28;20702;-61
2021/04/26 11:52:38;;;;;;;19.60;17.27;;;19.90;40.40;;;;;;5005581;28;20042;-60
2021/04/26 11:55:04;;;;;;;19.02;17.00;;;19.90;40.50;;;;;;4996497;28;20042;-59
2021/04/26 11:57:38;;;;;;;17.52;15.40;;;20.10;40.20;;;;;;5040770;28;20051;-61
2021/04/26 12:00:08;;;;;;;23.95;16.30;;;20.10;40.00;;;;;;5050789;28;20072;-63
2021/04/26 12:02:46;;;;;;;22.65;17.38;;;20.10;40.40;;;;;;5042148;28;20037;-61
2021/04/26 12:05:17;;;;;;;25.40;18.15;;;20.20;40.90;;;;;;5024535;28;20110;-62
2021/04/26 12:07:51;;;;;;;18.70;16.80;;;20.00;40.70;;;;;;5028713;28;20049;-65
2021/04/26 12:10:20;;;;;;;22.15;16.55;;;20.00;40.90;;;;;;5052834;28;20068;-62
2021/04/26 12:12:46;;;;;;;22.95;17.63;;;19.90;41.30;;;;;;5050617;28;20037;-63
2021/04/26 12:15:15;;;;;;;36.20;25.02;;;20.00;41.10;;;;;;5048480;28;20112;-62
2021/04/26 12:17:43;;;;;;;27.17;20.65;;;20.00;40.50;;;;;;5047888;28;20040;-62
2021/04/26 12:20:22;;;;;;;31.27;21.30;;;20.10;40.90;;;;;;5049424;28;20037;-62
2021/04/26 12:22:53;;;;;;;26.27;18.73;;;19.90;41.30;;;;;;5039657;28;20155;-64
2021/04/26 12:25:20;;;;;;;20.13;18.05;;;19.80;41.40;;;;;;5052941;28;20086;-65
2021/04/26 12:27:46;;;;;;;22.02;17.88;;;19.80;41.60;;;;;;5026583;28;20737;-60
2021/04/26 12:30:15;;;;;;;29.10;20.92;;;19.90;41.40;;;;;;5063705;28;20040;-60
2021/04/26 12:32:42;;;;;;;24.35;19.17;;;19.80;41.60;;;;;;5059865;28;20490;-61
2021/04/26 12:35:13;;;;;;;22.45;18.20;;;19.80;41.50;;;;;;5056098;28;20112;-66
2021/04/26 12:37:41;;;;;;;21.48;17.42;;;19.80;41.80;;;;;;5049996;28;20141;-63
2021/04/26 12:40:24;;;;;;;19.48;17.48;;;19.90;41.80;;;;;;5044932;28;20033;-59